sensor_id;sensor_type;location;lat;lon;timestamp;P1;durP1;ratioP1;P2;durP2;ratioP2
12024;SDS011;6073;53.230;10.444;2022-12-18T00:00:57;20.03;;;12.77;;
12024;SDS011;6073;53.230;10.444;2022-12-18T00:03:22;20.37;;;12.83;;
12024;SDS011;6073;53.230;10.444;2022-12-18T00:05:48;24.03;;;13.70;;
12024;SDS011;6073;53.230;10.444;2022-12-18T00:08:15;25.80;;;14.20;;
12024;SDS011;6073;53.230;10.444;2022-12-18T00:10:41;26.30;;;14.43;;
12024;SDS011;6073;53.230;10.444;2022-12-18T00:13:07;22.07;;;14.07;;
12024;SDS011;6073;53.230;10.444;2022-12-18T00:15:34;21.90;;;13.07;;
12024;SDS011;6073;53.230;10.444;2022-12-18T00:18:00;21.10;;;13.50;;
12024;SDS011;6073;53.230;10.444;2022-12-18T00:20:26;23.50;;;14.43;;
12024;SDS011;6073;53.230;10.444;2022-12-18T00:22:52;25.60;;;14.83;;
12024;SDS011;6073;53.230;10.444;2022-12-18T00:25:18;27.17;;;14.80;;
12024;SDS011;6073;53.230;10.444;2022-12-18T00:27:43;25.60;;;15.00;;
12024;SDS011;6073;53.230;10.444;2022-12-18T00:30:09;22.77;;;14.83;;
12024;SDS011;6073;53.230;10.444;2022-12-18T00:32:35;26.93;;;14.67;;
12024;SDS011;6073;53.230;10.444;2022-12-18T00:35:00;25.73;;;15.47;;
12024;SDS011;6073;53.230;10.444;2022-12-18T00:37:26;25.60;;;15.30;;
12024;SDS011;6073;53.230;10.444;2022-12-18T00:39:52;25.60;;;14.67;;
12024;SDS011;6073;53.230;10.444;2022-12-18T00:42:17;23.43;;;14.03;;
12024;SDS011;6073;53.230;10.444;2022-12-18T00:45:01;22.70;;;14.13;;
12024;SDS011;6073;53.230;10.444;2022-12-18T00:47:27;27.33;;;14.30;;
12024;SDS011;6073;53.230;10.444;2022-12-18T00:49:52;29.67;;;15.37;;
12024;SDS011;6073;53.230;10.444;2022-12-18T00:52:18;26.10;;;15.00;;
12024;SDS011;6073;53.230;10.444;2022-12-18T00:54:43;23.60;;;14.30;;
12024;SDS011;6073;53.230;10.444;2022-12-18T00:57:09;23.70;;;14.70;;
12024;SDS011;6073;53.230;10.444;2022-12-18T00:59:34;23.50;;;14.50;;
12024;SDS011;6073;53.230;10.444;2022-12-18T01:02:00;23.80;;;14.47;;
12024;SDS011;6073;53.230;10.444;2022-12-18T01:04:26;27.27;;;15.40;;
12024;SDS011;6073;53.230;10.444;2022-12-18T01:06:51;24.43;;;14.10;;
12024;SDS011;6073;53.230;10.444;2022-12-18T01:09:17;22.53;;;14.77;;
12024;SDS011;6073;53.230;10.444;2022-12-18T01:11:42;25.60;;;14.70;;
12024;SDS011;6073;53.230;10.444;2022-12-18T01:14:08;25.73;;;15.43;;
12024;SDS011;6073;53.230;10.444;2022-12-18T01:16:33;27.27;;;15.47;;
12024;SDS011;6073;53.230;10.444;2022-12-18T01:18:59;24.77;;;14.60;;
12024;SDS011;6073;53.230;10.444;2022-12-18T01:21:24;26.30;;;14.97;;
12024;SDS011;6073;53.230;10.444;2022-12-18T01:23:51;25.13;;;15.73;;
12024;SDS011;6073;53.230;10.444;2022-12-18T01:26:18;26.20;;;15.87;;
12024;SDS011;6073;53.230;10.444;2022-12-18T01:28:44;21.23;;;14.73;;
12024;SDS011;6073;53.230;10.444;2022-12-18T01:31:18;24.27;;;14.47;;
12024;SDS011;6073;53.230;10.444;2022-12-18T01:33:48;26.93;;;15.77;;
12024;SDS011;6073;53.230;10.444;2022-12-18T01:36:19;28.33;;;15.50;;
12024;SDS011;6073;53.230;10.444;2022-12-18T01:38:53;25.83;;;14.83;;
12024;SDS011;6073;53.230;10.444;2022-12-18T01:41:20;29.63;;;16.13;;
12024;SDS011;6073;53.230;10.444;2022-12-18T01:43:54;27.53;;;14.63;;
12024;SDS011;6073;53.230;10.444;2022-12-18T01:46:22;24.77;;;14.80;;
12024;SDS011;6073;53.230;10.444;2022-12-18T01:48:55;24.67;;;15.57;;
12024;SDS011;6073;53.230;10.444;2022-12-18T01:51:23;29.43;;;15.80;;
12024;SDS011;6073;53.230;10.444;2022-12-18T01:53:50;27.07;;;16.03;;
12024;SDS011;6073;53.230;10.444;2022-12-18T01:56:16;27.10;;;15.30;;
12024;SDS011;6073;53.230;10.444;2022-12-18T02:01:16;27.90;;;16.00;;
12024;SDS011;6073;53.230;10.444;2022-12-18T02:03:42;25.73;;;17.33;;
12024;SDS011;6073;53.230;10.444;2022-12-18T02:06:13;27.60;;;17.00;;
12024;SDS011;6073;53.230;10.444;2022-12-18T02:09:07;28.73;;;15.83;;
12024;SDS011;6073;53.230;10.444;2022-12-18T02:11:51;28.77;;;16.67;;
12024;SDS011;6073;53.230;10.444;2022-12-18T02:16:52;28.33;;;14.90;;
12024;SDS011;6073;53.230;10.444;2022-12-18T02:19:47;28.00;;;15.63;;
12024;SDS011;6073;53.230;10.444;2022-12-18T02:27:42;28.77;;;17.07;;
12024;SDS011;6073;53.230;10.444;2022-12-18T02:30:10;27.00;;;16.00;;
12024;SDS011;6073;53.230;10.444;2022-12-18T02:32:37;28.43;;;16.87;;
12024;SDS011;6073;53.230;10.444;2022-12-18T02:35:09;26.17;;;16.27;;
12024;SDS011;6073;53.230;10.444;2022-12-18T02:37:39;29.33;;;16.37;;
12024;SDS011;6073;53.230;10.444;2022-12-18T02:40:07;28.43;;;17.57;;
12024;SDS011;6073;53.230;10.444;2022-12-18T02:42:34;31.10;;;17.13;;
12024;SDS011;6073;53.230;10.444;2022-12-18T02:44:59;30.17;;;16.70;;
12024;SDS011;6073;53.230;10.444;2022-12-18T02:47:27;27.43;;;16.93;;
12024;SDS011;6073;53.230;10.444;2022-12-18T03:01:16;28.80;;;17.03;;
12024;SDS011;6073;53.230;10.444;2022-12-18T03:03:53;27.20;;;16.23;;
12024;SDS011;6073;53.230;10.444;2022-12-18T03:06:26;32.27;;;17.00;;
12024;SDS011;6073;53.230;10.444;2022-12-18T03:09:14;28.63;;;16.47;;
12024;SDS011;6073;53.230;10.444;2022-12-18T03:11:45;23.47;;;15.80;;
12024;SDS011;6073;53.230;10.444;2022-12-18T03:14:33;27.43;;;15.23;;
12024;SDS011;6073;53.230;10.444;2022-12-18T03:17:02;30.33;;;15.87;;
12024;SDS011;6073;53.230;10.444;2022-12-18T03:19:32;25.33;;;13.30;;
12024;SDS011;6073;53.230;10.444;2022-12-18T03:22:00;26.90;;;16.13;;
12024;SDS011;6073;53.230;10.444;2022-12-18T03:24:29;25.17;;;14.97;;
12024;SDS011;6073;53.230;10.444;2022-12-18T03:26:58;24.43;;;14.67;;
12024;SDS011;6073;53.230;10.444;2022-12-18T03:29:28;27.67;;;15.47;;
12024;SDS011;6073;53.230;10.444;2022-12-18T03:32:04;25.80;;;15.53;;
12024;SDS011;6073;53.230;10.444;2022-12-18T03:34:35;27.17;;;15.07;;
12024;SDS011;6073;53.230;10.444;2022-12-18T03:37:04;26.23;;;14.57;;
12024;SDS011;6073;53.230;10.444;2022-12-18T03:39:30;27.83;;;15.00;;
12024;SDS011;6073;53.230;10.444;2022-12-18T03:41:59;31.67;;;16.07;;
12024;SDS011;6073;53.230;10.444;2022-12-18T03:47:22;29.07;;;16.40;;
12024;SDS011;6073;53.230;10.444;2022-12-18T03:52:41;27.47;;;16.67;;
12024;SDS011;6073;53.230;10.444;2022-12-18T03:55:23;29.93;;;16.57;;
12024;SDS011;6073;53.230;10.444;2022-12-18T03:57:51;34.03;;;18.07;;
12024;SDS011;6073;53.230;10.444;2022-12-18T04:00:18;32.63;;;18.30;;
12024;SDS011;6073;53.230;10.444;2022-12-18T04:02:46;31.53;;;17.57;;
12024;SDS011;6073;53.230;10.444;2022-12-18T04:05:16;31.57;;;17.93;;
12024;SDS011;6073;53.230;10.444;2022-12-18T04:07:45;28.07;;;16.67;;
12024;SDS011;6073;53.230;10.444;2022-12-18T04:10:12;29.87;;;17.17;;
12024;SDS011;6073;53.230;10.444;2022-12-18T04:12:39;31.33;;;17.67;;
12024;SDS011;6073;53.230;10.444;2022-12-18T04:15:05;30.67;;;16.70;;
12024;SDS011;6073;53.230;10.444;2022-12-18T04:17:31;29.67;;;17.30;;
12024;SDS011;6073;53.230;10.444;2022-12-18T04:19:57;29.40;;;16.63;;
12024;SDS011;6073;53.230;10.444;2022-12-18T04:22:22;29.57;;;16.23;;
12024;SDS011;6073;53.230;10.444;2022-12-18T04:24:48;28.53;;;17.00;;
12024;SDS011;6073;53.230;10.444;2022-12-18T04:27:13;31.13;;;17.60;;
12024;SDS011;6073;53.230;10.444;2022-12-18T04:29:39;30.23;;;16.63;;
12024;SDS011;6073;53.230;10.444;2022-12-18T04:32:05;29.73;;;16.20;;
12024;SDS011;6073;53.230;10.444;2022-12-18T04:34:30;27.13;;;15.73;;
12024;SDS011;6073;53.230;10.444;2022-12-18T04:36:56;25.33;;;16.00;;
12024;SDS011;6073;53.230;10.444;2022-12-18T04:39:21;27.13;;;16.70;;
12024;SDS011;6073;53.230;10.444;2022-12-18T04:41:47;29.27;;;17.13;;
12024;SDS011;6073;53.230;10.444;2022-12-18T04:44:12;33.27;;;16.50;;
12024;SDS011;6073;53.230;10.444;2022-12-18T04:46:38;27.57;;;16.30;;
12024;SDS011;6073;53.230;10.444;2022-12-18T04:49:03;28.70;;;15.90;;
12024;SDS011;6073;53.230;10.444;2022-12-18T04:51:29;29.63;;;16.37;;
12024;SDS011;6073;53.230;10.444;2022-12-18T04:53:55;31.50;;;17.17;;
12024;SDS011;6073;53.230;10.444;2022-12-18T04:56:21;28.17;;;15.87;;
12024;SDS011;6073;53.230;10.444;2022-12-18T04:58:46;31.97;;;16.43;;
12024;SDS011;6073;53.230;10.444;2022-12-18T05:01:12;28.23;;;15.97;;
12024;SDS011;6073;53.230;10.444;2022-12-18T05:03:39;28.07;;;15.90;;
12024;SDS011;6073;53.230;10.444;2022-12-18T05:06:05;26.33;;;15.00;;
12024;SDS011;6073;53.230;10.444;2022-12-18T05:08:31;29.90;;;16.07;;
12024;SDS011;6073;53.230;10.444;2022-12-18T05:13:29;28.07;;;15.20;;
12024;SDS011;6073;53.230;10.444;2022-12-18T05:15:55;29.83;;;15.17;;
12024;SDS011;6073;53.230;10.444;2022-12-18T05:18:21;28.57;;;15.60;;
12024;SDS011;6073;53.230;10.444;2022-12-18T05:20:47;26.17;;;16.03;;
12024;SDS011;6073;53.230;10.444;2022-12-18T05:23:15;30.87;;;16.10;;
12024;SDS011;6073;53.230;10.444;2022-12-18T05:25:40;25.33;;;14.20;;
12024;SDS011;6073;53.230;10.444;2022-12-18T05:28:06;25.20;;;14.67;;
12024;SDS011;6073;53.230;10.444;2022-12-18T05:30:31;29.93;;;16.63;;
12024;SDS011;6073;53.230;10.444;2022-12-18T05:32:57;27.30;;;15.80;;
12024;SDS011;6073;53.230;10.444;2022-12-18T05:35:22;28.00;;;15.67;;
12024;SDS011;6073;53.230;10.444;2022-12-18T05:37:48;24.60;;;14.97;;
12024;SDS011;6073;53.230;10.444;2022-12-18T05:40:13;28.03;;;14.83;;
12024;SDS011;6073;53.230;10.444;2022-12-18T05:42:39;25.00;;;14.27;;
12024;SDS011;6073;53.230;10.444;2022-12-18T05:45:05;26.77;;;14.47;;
12024;SDS011;6073;53.230;10.444;2022-12-18T05:47:31;26.53;;;15.30;;
12024;SDS011;6073;53.230;10.444;2022-12-18T05:49:56;26.30;;;16.10;;
12024;SDS011;6073;53.230;10.444;2022-12-18T05:52:22;36.10;;;19.73;;
12024;SDS011;6073;53.230;10.444;2022-12-18T05:54:47;38.20;;;20.97;;
12024;SDS011;6073;53.230;10.444;2022-12-18T05:57:13;36.43;;;22.13;;
12024;SDS011;6073;53.230;10.444;2022-12-18T05:59:39;39.23;;;23.80;;
12024;SDS011;6073;53.230;10.444;2022-12-18T06:02:04;41.47;;;25.00;;
12024;SDS011;6073;53.230;10.444;2022-12-18T06:04:30;33.03;;;19.93;;
12024;SDS011;6073;53.230;10.444;2022-12-18T06:06:56;30.67;;;18.90;;
12024;SDS011;6073;53.230;10.444;2022-12-18T06:09:21;30.10;;;17.77;;
12024;SDS011;6073;53.230;10.444;2022-12-18T06:11:47;33.93;;;19.83;;
12024;SDS011;6073;53.230;10.444;2022-12-18T06:14:12;30.50;;;18.37;;
12024;SDS011;6073;53.230;10.444;2022-12-18T06:16:38;27.80;;;15.70;;
12024;SDS011;6073;53.230;10.444;2022-12-18T06:19:04;33.53;;;17.00;;
12024;SDS011;6073;53.230;10.444;2022-12-18T06:21:31;31.53;;;16.87;;
12024;SDS011;6073;53.230;10.444;2022-12-18T06:23:57;31.50;;;16.80;;
12024;SDS011;6073;53.230;10.444;2022-12-18T06:26:23;27.17;;;15.63;;
12024;SDS011;6073;53.230;10.444;2022-12-18T06:28:49;29.83;;;16.53;;
12024;SDS011;6073;53.230;10.444;2022-12-18T06:31:14;29.07;;;16.87;;
12024;SDS011;6073;53.230;10.444;2022-12-18T06:33:40;29.90;;;15.90;;
12024;SDS011;6073;53.230;10.444;2022-12-18T06:36:07;32.33;;;16.63;;
12024;SDS011;6073;53.230;10.444;2022-12-18T06:38:35;30.77;;;16.30;;
12024;SDS011;6073;53.230;10.444;2022-12-18T06:41:06;32.97;;;16.27;;
12024;SDS011;6073;53.230;10.444;2022-12-18T06:43:32;26.23;;;15.37;;
12024;SDS011;6073;53.230;10.444;2022-12-18T06:46:01;31.83;;;16.47;;
12024;SDS011;6073;53.230;10.444;2022-12-18T06:48:27;31.40;;;16.77;;
12024;SDS011;6073;53.230;10.444;2022-12-18T06:50:53;28.47;;;14.27;;
12024;SDS011;6073;53.230;10.444;2022-12-18T06:53:19;30.70;;;16.97;;
12024;SDS011;6073;53.230;10.444;2022-12-18T06:55:44;26.97;;;15.30;;
12024;SDS011;6073;53.230;10.444;2022-12-18T06:58:10;29.93;;;16.63;;
12024;SDS011;6073;53.230;10.444;2022-12-18T07:00:35;29.67;;;16.80;;
12024;SDS011;6073;53.230;10.444;2022-12-18T07:03:01;31.73;;;17.13;;
12024;SDS011;6073;53.230;10.444;2022-12-18T07:05:27;28.60;;;16.00;;
12024;SDS011;6073;53.230;10.444;2022-12-18T07:07:52;30.27;;;16.97;;
12024;SDS011;6073;53.230;10.444;2022-12-18T07:10:18;27.27;;;15.80;;
12024;SDS011;6073;53.230;10.444;2022-12-18T07:12:43;31.67;;;15.43;;
12024;SDS011;6073;53.230;10.444;2022-12-18T07:15:09;27.20;;;14.67;;
12024;SDS011;6073;53.230;10.444;2022-12-18T07:17:35;34.30;;;15.80;;
12024;SDS011;6073;53.230;10.444;2022-12-18T07:20:00;29.30;;;16.43;;
12024;SDS011;6073;53.230;10.444;2022-12-18T07:22:26;31.27;;;16.00;;
12024;SDS011;6073;53.230;10.444;2022-12-18T07:24:51;28.43;;;15.40;;
12024;SDS011;6073;53.230;10.444;2022-12-18T07:27:17;28.23;;;16.10;;
12024;SDS011;6073;53.230;10.444;2022-12-18T07:29:43;25.27;;;14.63;;
12024;SDS011;6073;53.230;10.444;2022-12-18T07:32:08;29.90;;;16.17;;
12024;SDS011;6073;53.230;10.444;2022-12-18T07:34:34;25.97;;;17.07;;
12024;SDS011;6073;53.230;10.444;2022-12-18T07:37:00;27.20;;;16.67;;
12024;SDS011;6073;53.230;10.444;2022-12-18T07:39:25;30.13;;;15.83;;
12024;SDS011;6073;53.230;10.444;2022-12-18T07:41:51;28.57;;;15.77;;
12024;SDS011;6073;53.230;10.444;2022-12-18T07:44:35;30.63;;;15.37;;
12024;SDS011;6073;53.230;10.444;2022-12-18T07:47:02;26.67;;;14.57;;
12024;SDS011;6073;53.230;10.444;2022-12-18T07:49:27;27.87;;;15.37;;
12024;SDS011;6073;53.230;10.444;2022-12-18T07:51:56;29.13;;;16.17;;
12024;SDS011;6073;53.230;10.444;2022-12-18T07:54:23;33.53;;;17.67;;
12024;SDS011;6073;53.230;10.444;2022-12-18T07:56:49;31.10;;;16.00;;
12024;SDS011;6073;53.230;10.444;2022-12-18T07:59:16;33.20;;;16.23;;
12024;SDS011;6073;53.230;10.444;2022-12-18T08:01:41;27.77;;;15.40;;
12024;SDS011;6073;53.230;10.444;2022-12-18T08:04:07;33.33;;;15.70;;
12024;SDS011;6073;53.230;10.444;2022-12-18T08:06:33;26.50;;;15.80;;
12024;SDS011;6073;53.230;10.444;2022-12-18T08:08:58;31.77;;;16.00;;
12024;SDS011;6073;53.230;10.444;2022-12-18T08:11:24;28.23;;;14.70;;
12024;SDS011;6073;53.230;10.444;2022-12-18T08:13:53;29.60;;;15.70;;
12024;SDS011;6073;53.230;10.444;2022-12-18T08:16:19;30.40;;;15.83;;
12024;SDS011;6073;53.230;10.444;2022-12-18T08:18:46;30.57;;;15.23;;
12024;SDS011;6073;53.230;10.444;2022-12-18T08:21:14;27.57;;;15.53;;
12024;SDS011;6073;53.230;10.444;2022-12-18T08:23:45;27.93;;;15.57;;
12024;SDS011;6073;53.230;10.444;2022-12-18T08:26:11;31.40;;;15.63;;
12024;SDS011;6073;53.230;10.444;2022-12-18T08:28:38;30.37;;;14.80;;
12024;SDS011;6073;53.230;10.444;2022-12-18T08:31:04;32.57;;;15.93;;
12024;SDS011;6073;53.230;10.444;2022-12-18T08:33:30;29.57;;;15.07;;
12024;SDS011;6073;53.230;10.444;2022-12-18T08:35:55;28.80;;;15.37;;
12024;SDS011;6073;53.230;10.444;2022-12-18T08:38:23;27.00;;;15.43;;
12024;SDS011;6073;53.230;10.444;2022-12-18T08:40:49;29.67;;;15.13;;
12024;SDS011;6073;53.230;10.444;2022-12-18T08:43:19;31.97;;;17.33;;
12024;SDS011;6073;53.230;10.444;2022-12-18T08:46:03;33.73;;;16.67;;
12024;SDS011;6073;53.230;10.444;2022-12-18T08:48:28;28.17;;;14.83;;
12024;SDS011;6073;53.230;10.444;2022-12-18T08:50:57;24.07;;;14.83;;
12024;SDS011;6073;53.230;10.444;2022-12-18T08:53:24;24.73;;;13.70;;
12024;SDS011;6073;53.230;10.444;2022-12-18T08:55:50;28.80;;;14.93;;
12024;SDS011;6073;53.230;10.444;2022-12-18T08:58:16;33.57;;;15.43;;
12024;SDS011;6073;53.230;10.444;2022-12-18T09:00:42;27.30;;;15.10;;
12024;SDS011;6073;53.230;10.444;2022-12-18T09:03:12;30.20;;;15.27;;
12024;SDS011;6073;53.230;10.444;2022-12-18T09:05:38;31.57;;;15.70;;
12024;SDS011;6073;53.230;10.444;2022-12-18T09:08:04;28.37;;;15.57;;
12024;SDS011;6073;53.230;10.444;2022-12-18T09:10:29;27.87;;;14.77;;
12024;SDS011;6073;53.230;10.444;2022-12-18T09:12:55;25.90;;;14.43;;
12024;SDS011;6073;53.230;10.444;2022-12-18T09:15:21;29.37;;;15.17;;
12024;SDS011;6073;53.230;10.444;2022-12-18T09:17:47;24.47;;;14.07;;
12024;SDS011;6073;53.230;10.444;2022-12-18T09:20:13;23.67;;;13.97;;
12024;SDS011;6073;53.230;10.444;2022-12-18T09:22:38;26.33;;;14.57;;
12024;SDS011;6073;53.230;10.444;2022-12-18T09:25:04;22.57;;;13.17;;
12024;SDS011;6073;53.230;10.444;2022-12-18T09:27:32;27.50;;;14.77;;
12024;SDS011;6073;53.230;10.444;2022-12-18T09:29:58;24.70;;;13.10;;
12024;SDS011;6073;53.230;10.444;2022-12-18T09:32:24;29.67;;;15.87;;
12024;SDS011;6073;53.230;10.444;2022-12-18T09:34:50;44.10;;;23.67;;
12024;SDS011;6073;53.230;10.444;2022-12-18T09:37:15;39.40;;;19.07;;
12024;SDS011;6073;53.230;10.444;2022-12-18T09:39:41;45.30;;;21.53;;
12024;SDS011;6073;53.230;10.444;2022-12-18T09:42:06;35.33;;;16.27;;
12024;SDS011;6073;53.230;10.444;2022-12-18T09:44:43;33.03;;;16.73;;
12024;SDS011;6073;53.230;10.444;2022-12-18T09:47:15;32.47;;;16.10;;
12024;SDS011;6073;53.230;10.444;2022-12-18T09:49:55;27.37;;;15.63;;
12024;SDS011;6073;53.230;10.444;2022-12-18T09:52:28;26.77;;;14.47;;
12024;SDS011;6073;53.230;10.444;2022-12-18T09:55:00;29.33;;;15.10;;
12024;SDS011;6073;53.230;10.444;2022-12-18T09:57:42;25.47;;;15.03;;
12024;SDS011;6073;53.230;10.444;2022-12-18T10:02:43;24.73;;;14.70;;
12024;SDS011;6073;53.230;10.444;2022-12-18T10:05:12;27.40;;;14.70;;
12024;SDS011;6073;53.230;10.444;2022-12-18T10:07:58;27.13;;;15.53;;
12024;SDS011;6073;53.230;10.444;2022-12-18T10:13:23;27.17;;;15.27;;
12024;SDS011;6073;53.230;10.444;2022-12-18T10:21:19;28.57;;;15.43;;
12024;SDS011;6073;53.230;10.444;2022-12-18T10:23:54;25.30;;;14.93;;
12024;SDS011;6073;53.230;10.444;2022-12-18T10:26:47;26.33;;;14.30;;
12024;SDS011;6073;53.230;10.444;2022-12-18T10:29:13;27.03;;;14.33;;
12024;SDS011;6073;53.230;10.444;2022-12-18T10:31:40;24.67;;;14.13;;
12024;SDS011;6073;53.230;10.444;2022-12-18T10:34:10;26.13;;;13.03;;
12024;SDS011;6073;53.230;10.444;2022-12-18T10:36:39;25.73;;;14.60;;
12024;SDS011;6073;53.230;10.444;2022-12-18T10:39:15;25.97;;;14.10;;
12024;SDS011;6073;53.230;10.444;2022-12-18T10:41:42;28.83;;;14.43;;
12024;SDS011;6073;53.230;10.444;2022-12-18T10:46:36;24.00;;;13.63;;
12024;SDS011;6073;53.230;10.444;2022-12-18T10:49:02;24.43;;;14.70;;
12024;SDS011;6073;53.230;10.444;2022-12-18T10:51:30;27.20;;;14.77;;
12024;SDS011;6073;53.230;10.444;2022-12-18T10:54:00;33.87;;;14.43;;
12024;SDS011;6073;53.230;10.444;2022-12-18T10:56:28;27.30;;;13.90;;
12024;SDS011;6073;53.230;10.444;2022-12-18T10:59:02;28.30;;;15.07;;
12024;SDS011;6073;53.230;10.444;2022-12-18T11:01:46;26.40;;;13.07;;
12024;SDS011;6073;53.230;10.444;2022-12-18T11:04:13;22.57;;;13.17;;
12024;SDS011;6073;53.230;10.444;2022-12-18T11:06:58;27.77;;;14.67;;
12024;SDS011;6073;53.230;10.444;2022-12-18T11:09:26;25.20;;;13.37;;
12024;SDS011;6073;53.230;10.444;2022-12-18T11:11:56;29.03;;;14.67;;
12024;SDS011;6073;53.230;10.444;2022-12-18T11:14:28;29.07;;;13.60;;
12024;SDS011;6073;53.230;10.444;2022-12-18T11:16:56;26.67;;;13.70;;
12024;SDS011;6073;53.230;10.444;2022-12-18T11:19:31;30.00;;;14.93;;
12024;SDS011;6073;53.230;10.444;2022-12-18T11:22:03;24.33;;;13.77;;
12024;SDS011;6073;53.230;10.444;2022-12-18T11:24:50;23.97;;;12.67;;
12024;SDS011;6073;53.230;10.444;2022-12-18T11:27:38;24.07;;;13.67;;
12024;SDS011;6073;53.230;10.444;2022-12-18T11:30:13;26.43;;;13.20;;
12024;SDS011;6073;53.230;10.444;2022-12-18T11:33:32;26.87;;;13.93;;
12024;SDS011;6073;53.230;10.444;2022-12-18T11:35:53;27.93;;;14.10;;
12024;SDS011;6073;53.230;10.444;2022-12-18T11:38:29;24.63;;;13.33;;
12024;SDS011;6073;53.230;10.444;2022-12-18T11:43:52;23.53;;;13.93;;
12024;SDS011;6073;53.230;10.444;2022-12-18T11:46:34;27.77;;;13.30;;
12024;SDS011;6073;53.230;10.444;2022-12-18T11:49:03;24.97;;;13.23;;
12024;SDS011;6073;53.230;10.444;2022-12-18T11:51:40;26.33;;;13.43;;
12024;SDS011;6073;53.230;10.444;2022-12-18T11:54:15;20.17;;;12.17;;
12024;SDS011;6073;53.230;10.444;2022-12-18T11:56:44;21.40;;;11.13;;
12024;SDS011;6073;53.230;10.444;2022-12-18T12:02:09;23.80;;;11.83;;
12024;SDS011;6073;53.230;10.444;2022-12-18T12:05:31;27.60;;;12.83;;
12024;SDS011;6073;53.230;10.444;2022-12-18T12:10:42;24.77;;;12.83;;
12024;SDS011;6073;53.230;10.444;2022-12-18T12:15:50;29.13;;;13.37;;
12024;SDS011;6073;53.230;10.444;2022-12-18T12:21:16;28.23;;;13.43;;
12024;SDS011;6073;53.230;10.444;2022-12-18T12:23:58;24.50;;;13.13;;
12024;SDS011;6073;53.230;10.444;2022-12-18T12:26:33;23.63;;;13.40;;
12024;SDS011;6073;53.230;10.444;2022-12-18T12:29:33;24.50;;;13.07;;
12024;SDS011;6073;53.230;10.444;2022-12-18T12:35:22;31.50;;;13.70;;
12024;SDS011;6073;53.230;10.444;2022-12-18T12:38:19;24.17;;;13.73;;
12024;SDS011;6073;53.230;10.444;2022-12-18T12:40:51;29.23;;;14.77;;
12024;SDS011;6073;53.230;10.444;2022-12-18T12:51:16;27.83;;;14.07;;
12024;SDS011;6073;53.230;10.444;2022-12-18T12:53:43;28.50;;;15.03;;
12024;SDS011;6073;53.230;10.444;2022-12-18T12:56:10;29.70;;;13.80;;
12024;SDS011;6073;53.230;10.444;2022-12-18T13:01:35;31.87;;;15.03;;
12024;SDS011;6073;53.230;10.444;2022-12-18T13:04:15;28.17;;;15.03;;
12024;SDS011;6073;53.230;10.444;2022-12-18T13:09:36;31.73;;;15.87;;
12024;SDS011;6073;53.230;10.444;2022-12-18T13:12:50;32.57;;;15.20;;
12024;SDS011;6073;53.230;10.444;2022-12-18T13:16:06;32.60;;;15.57;;
12024;SDS011;6073;53.230;10.444;2022-12-18T13:18:21;29.30;;;16.17;;
12024;SDS011;6073;53.230;10.444;2022-12-18T13:20:51;30.00;;;15.50;;
12024;SDS011;6073;53.230;10.444;2022-12-18T13:23:43;27.10;;;14.70;;
12024;SDS011;6073;53.230;10.444;2022-12-18T13:31:58;32.33;;;16.37;;
12024;SDS011;6073;53.230;10.444;2022-12-18T13:34:17;34.93;;;16.43;;
12024;SDS011;6073;53.230;10.444;2022-12-18T13:36:55;33.43;;;16.40;;
12024;SDS011;6073;53.230;10.444;2022-12-18T13:39:39;32.17;;;14.70;;
12024;SDS011;6073;53.230;10.444;2022-12-18T13:44:31;32.13;;;16.67;;
12024;SDS011;6073;53.230;10.444;2022-12-18T13:47:02;29.13;;;15.33;;
12024;SDS011;6073;53.230;10.444;2022-12-18T13:51:55;30.33;;;15.07;;
12024;SDS011;6073;53.230;10.444;2022-12-18T13:56:58;33.90;;;17.77;;
12024;SDS011;6073;53.230;10.444;2022-12-18T13:59:25;35.70;;;15.07;;
12024;SDS011;6073;53.230;10.444;2022-12-18T14:01:59;34.93;;;15.97;;
12024;SDS011;6073;53.230;10.444;2022-12-18T14:04:30;30.33;;;15.70;;
12024;SDS011;6073;53.230;10.444;2022-12-18T14:07:07;30.07;;;15.23;;
12024;SDS011;6073;53.230;10.444;2022-12-18T14:09:39;28.87;;;15.63;;
12024;SDS011;6073;53.230;10.444;2022-12-18T14:12:16;36.17;;;17.27;;
12024;SDS011;6073;53.230;10.444;2022-12-18T14:17:52;31.57;;;15.90;;
12024;SDS011;6073;53.230;10.444;2022-12-18T14:20:20;31.60;;;15.67;;
12024;SDS011;6073;53.230;10.444;2022-12-18T14:22:46;33.57;;;16.17;;
12024;SDS011;6073;53.230;10.444;2022-12-18T14:25:20;35.20;;;16.40;;
12024;SDS011;6073;53.230;10.444;2022-12-18T14:30:35;34.17;;;16.00;;
12024;SDS011;6073;53.230;10.444;2022-12-18T14:33:04;32.87;;;15.77;;
12024;SDS011;6073;53.230;10.444;2022-12-18T14:35:33;30.00;;;15.27;;
12024;SDS011;6073;53.230;10.444;2022-12-18T14:38:23;29.13;;;16.37;;
12024;SDS011;6073;53.230;10.444;2022-12-18T14:40:53;30.97;;;16.93;;
12024;SDS011;6073;53.230;10.444;2022-12-18T14:43:20;32.47;;;16.87;;
12024;SDS011;6073;53.230;10.444;2022-12-18T14:45:46;35.83;;;17.27;;
12024;SDS011;6073;53.230;10.444;2022-12-18T14:48:16;31.67;;;17.67;;
12024;SDS011;6073;53.230;10.444;2022-12-18T14:50:54;34.93;;;17.57;;
12024;SDS011;6073;53.230;10.444;2022-12-18T14:53:25;32.40;;;15.13;;
12024;SDS011;6073;53.230;10.444;2022-12-18T14:56:12;34.77;;;16.47;;
12024;SDS011;6073;53.230;10.444;2022-12-18T14:58:53;30.47;;;15.27;;
12024;SDS011;6073;53.230;10.444;2022-12-18T15:01:21;34.23;;;17.10;;
12024;SDS011;6073;53.230;10.444;2022-12-18T15:03:52;33.10;;;15.33;;
12024;SDS011;6073;53.230;10.444;2022-12-18T15:06:27;29.57;;;15.63;;
12024;SDS011;6073;53.230;10.444;2022-12-18T15:08:58;32.23;;;15.57;;
12024;SDS011;6073;53.230;10.444;2022-12-18T15:13:54;29.43;;;14.70;;
12024;SDS011;6073;53.230;10.444;2022-12-18T15:16:19;30.13;;;13.83;;
12024;SDS011;6073;53.230;10.444;2022-12-18T15:18:46;26.47;;;14.67;;
12024;SDS011;6073;53.230;10.444;2022-12-18T15:21:16;28.43;;;15.27;;
12024;SDS011;6073;53.230;10.444;2022-12-18T15:26:10;26.23;;;13.63;;
12024;SDS011;6073;53.230;10.444;2022-12-18T15:28:38;28.33;;;14.00;;
12024;SDS011;6073;53.230;10.444;2022-12-18T15:33:39;30.00;;;15.17;;
12024;SDS011;6073;53.230;10.444;2022-12-18T15:36:11;28.13;;;14.43;;
12024;SDS011;6073;53.230;10.444;2022-12-18T15:38:38;30.67;;;15.33;;
12024;SDS011;6073;53.230;10.444;2022-12-18T15:41:04;29.30;;;14.33;;
12024;SDS011;6073;53.230;10.444;2022-12-18T15:43:32;28.67;;;15.40;;
12024;SDS011;6073;53.230;10.444;2022-12-18T15:48:41;30.17;;;16.67;;
12024;SDS011;6073;53.230;10.444;2022-12-18T15:51:13;31.10;;;14.57;;
12024;SDS011;6073;53.230;10.444;2022-12-18T15:53:43;30.27;;;15.43;;
12024;SDS011;6073;53.230;10.444;2022-12-18T15:56:10;31.63;;;17.60;;
12024;SDS011;6073;53.230;10.444;2022-12-18T15:58:55;30.30;;;15.43;;
12024;SDS011;6073;53.230;10.444;2022-12-18T16:01:22;28.93;;;15.23;;
12024;SDS011;6073;53.230;10.444;2022-12-18T16:03:50;26.97;;;14.53;;
12024;SDS011;6073;53.230;10.444;2022-12-18T16:06:16;28.27;;;13.37;;
12024;SDS011;6073;53.230;10.444;2022-12-18T16:08:45;27.20;;;14.70;;
12024;SDS011;6073;53.230;10.444;2022-12-18T16:11:27;27.47;;;15.30;;
12024;SDS011;6073;53.230;10.444;2022-12-18T16:16:43;24.37;;;13.20;;
12024;SDS011;6073;53.230;10.444;2022-12-18T16:19:13;26.87;;;14.13;;
12024;SDS011;6073;53.230;10.444;2022-12-18T16:21:39;27.97;;;13.83;;